sensor_id;sensor_type;location;lat;lon;timestamp;P1;durP1;ratioP1;P2;durP2;ratioP2
15381;SDS011;7789;51.364;12.358;2023-04-25T00:02:36;4.73;;;3.03;;
15381;SDS011;7789;51.364;12.358;2023-04-25T00:07:40;7.43;;;3.17;;
15381;SDS011;7789;51.364;12.358;2023-04-25T00:12:44;6.53;;;2.73;;
15381;SDS011;7789;51.364;12.358;2023-04-25T00:17:49;4.77;;;3.17;;
15381;SDS011;7789;51.364;12.358;2023-04-25T00:22:55;3.87;;;3.10;;
15381;SDS011;7789;51.364;12.358;2023-04-25T00:27:58;7.77;;;3.47;;
15381;SDS011;7789;51.364;12.358;2023-04-25T00:33:03;4.70;;;3.20;;
15381;SDS011;7789;51.364;12.358;2023-04-25T00:38:07;7.03;;;3.47;;
15381;SDS011;7789;51.364;12.358;2023-04-25T00:43:11;7.60;;;3.17;;
15381;SDS011;7789;51.364;12.358;2023-04-25T00:48:16;4.17;;;3.00;;
15381;SDS011;7789;51.364;12.358;2023-04-25T00:53:20;7.53;;;3.17;;
15381;SDS011;7789;51.364;12.358;2023-04-25T00:58:24;6.80;;;3.20;;
15381;SDS011;7789;51.364;12.358;2023-04-25T01:03:29;6.20;;;3.43;;
15381;SDS011;7789;51.364;12.358;2023-04-25T01:08:39;5.23;;;3.30;;
15381;SDS011;7789;51.364;12.358;2023-04-25T01:13:43;5.57;;;3.47;;
15381;SDS011;7789;51.364;12.358;2023-04-25T01:18:49;6.17;;;3.60;;
15381;SDS011;7789;51.364;12.358;2023-04-25T01:23:54;6.13;;;3.70;;
15381;SDS011;7789;51.364;12.358;2023-04-25T01:29:00;9.10;;;4.10;;
15381;SDS011;7789;51.364;12.358;2023-04-25T01:34:05;4.00;;;3.60;;
15381;SDS011;7789;51.364;12.358;2023-04-25T01:39:10;6.03;;;3.80;;
15381;SDS011;7789;51.364;12.358;2023-04-25T01:44:14;6.97;;;4.07;;
15381;SDS011;7789;51.364;12.358;2023-04-25T01:49:18;6.93;;;3.80;;
15381;SDS011;7789;51.364;12.358;2023-04-25T01:54:23;6.27;;;3.40;;
15381;SDS011;7789;51.364;12.358;2023-04-25T01:59:27;6.80;;;3.60;;
15381;SDS011;7789;51.364;12.358;2023-04-25T02:04:30;6.17;;;3.60;;
15381;SDS011;7789;51.364;12.358;2023-04-25T02:09:37;4.83;;;3.30;;
15381;SDS011;7789;51.364;12.358;2023-04-25T02:14:41;6.60;;;3.90;;
15381;SDS011;7789;51.364;12.358;2023-04-25T02:19:44;10.63;;;3.77;;
15381;SDS011;7789;51.364;12.358;2023-04-25T02:24:49;5.60;;;4.40;;
15381;SDS011;7789;51.364;12.358;2023-04-25T02:29:53;7.17;;;5.20;;
15381;SDS011;7789;51.364;12.358;2023-04-25T02:34:56;7.20;;;4.77;;
15381;SDS011;7789;51.364;12.358;2023-04-25T02:40:08;6.43;;;5.10;;
15381;SDS011;7789;51.364;12.358;2023-04-25T02:45:12;8.63;;;5.30;;
15381;SDS011;7789;51.364;12.358;2023-04-25T02:50:16;7.87;;;5.73;;
15381;SDS011;7789;51.364;12.358;2023-04-25T02:55:21;6.40;;;4.33;;
15381;SDS011;7789;51.364;12.358;2023-04-25T03:00:28;9.73;;;5.13;;
15381;SDS011;7789;51.364;12.358;2023-04-25T03:05:32;6.47;;;4.17;;
15381;SDS011;7789;51.364;12.358;2023-04-25T03:10:38;9.43;;;4.70;;
15381;SDS011;7789;51.364;12.358;2023-04-25T03:15:41;7.80;;;4.87;;
15381;SDS011;7789;51.364;12.358;2023-04-25T03:20:45;6.30;;;4.70;;
15381;SDS011;7789;51.364;12.358;2023-04-25T03:25:50;8.53;;;5.07;;
15381;SDS011;7789;51.364;12.358;2023-04-25T03:30:54;7.20;;;5.00;;
15381;SDS011;7789;51.364;12.358;2023-04-25T03:35:58;9.23;;;4.50;;
15381;SDS011;7789;51.364;12.358;2023-04-25T03:41:03;8.53;;;5.00;;
15381;SDS011;7789;51.364;12.358;2023-04-25T03:46:07;9.30;;;5.50;;
15381;SDS011;7789;51.364;12.358;2023-04-25T03:51:11;7.80;;;5.00;;
15381;SDS011;7789;51.364;12.358;2023-04-25T03:56:15;8.80;;;4.63;;
15381;SDS011;7789;51.364;12.358;2023-04-25T04:01:19;7.50;;;4.67;;
15381;SDS011;7789;51.364;12.358;2023-04-25T04:06:23;7.23;;;4.47;;
15381;SDS011;7789;51.364;12.358;2023-04-25T04:11:28;5.67;;;4.53;;
15381;SDS011;7789;51.364;12.358;2023-04-25T04:16:34;8.13;;;4.73;;
15381;SDS011;7789;51.364;12.358;2023-04-25T04:21:42;9.13;;;4.47;;
15381;SDS011;7789;51.364;12.358;2023-04-25T04:26:47;10.13;;;4.10;;
15381;SDS011;7789;51.364;12.358;2023-04-25T04:31:52;8.00;;;4.23;;
15381;SDS011;7789;51.364;12.358;2023-04-25T04:36:58;8.03;;;3.77;;
15381;SDS011;7789;51.364;12.358;2023-04-25T04:42:04;6.53;;;3.93;;
15381;SDS011;7789;51.364;12.358;2023-04-25T04:47:08;5.73;;;4.10;;
15381;SDS011;7789;51.364;12.358;2023-04-25T04:52:12;9.10;;;4.40;;
15381;SDS011;7789;51.364;12.358;2023-04-25T04:57:17;7.07;;;4.27;;
15381;SDS011;7789;51.364;12.358;2023-04-25T05:02:21;7.20;;;4.27;;
15381;SDS011;7789;51.364;12.358;2023-04-25T05:07:25;9.27;;;4.63;;
15381;SDS011;7789;51.364;12.358;2023-04-25T05:12:30;7.60;;;3.97;;
15381;SDS011;7789;51.364;12.358;2023-04-25T05:17:39;9.43;;;5.10;;
15381;SDS011;7789;51.364;12.358;2023-04-25T05:22:43;7.93;;;4.30;;
15381;SDS011;7789;51.364;12.358;2023-04-25T05:27:51;6.67;;;4.10;;
15381;SDS011;7789;51.364;12.358;2023-04-25T05:32:54;9.68;;;3.70;;
15381;SDS011;7789;51.364;12.358;2023-04-25T05:37:59;6.72;;;3.63;;
15381;SDS011;7789;51.364;12.358;2023-04-25T05:43:03;8.60;;;4.10;;
15381;SDS011;7789;51.364;12.358;2023-04-25T05:48:07;7.15;;;4.13;;
15381;SDS011;7789;51.364;12.358;2023-04-25T05:53:11;7.18;;;3.58;;
15381;SDS011;7789;51.364;12.358;2023-04-25T05:58:16;6.38;;;3.60;;
15381;SDS011;7789;51.364;12.358;2023-04-25T06:03:20;6.72;;;3.30;;
15381;SDS011;7789;51.364;12.358;2023-04-25T06:08:24;6.00;;;3.20;;
15381;SDS011;7789;51.364;12.358;2023-04-25T06:13:29;7.13;;;3.30;;
15381;SDS011;7789;51.364;12.358;2023-04-25T06:18:34;4.43;;;3.33;;
15381;SDS011;7789;51.364;12.358;2023-04-25T06:23:37;9.82;;;3.70;;
15381;SDS011;7789;51.364;12.358;2023-04-25T06:28:42;5.68;;;3.15;;
15381;SDS011;7789;51.364;12.358;2023-04-25T06:33:48;4.35;;;2.90;;
15381;SDS011;7789;51.364;12.358;2023-04-25T06:38:52;5.55;;;2.90;;
15381;SDS011;7789;51.364;12.358;2023-04-25T06:43:57;5.32;;;3.03;;
15381;SDS011;7789;51.364;12.358;2023-04-25T06:49:00;5.60;;;3.10;;
15381;SDS011;7789;51.364;12.358;2023-04-25T06:54:04;4.45;;;3.05;;
15381;SDS011;7789;51.364;12.358;2023-04-25T06:59:09;5.20;;;3.17;;
15381;SDS011;7789;51.364;12.358;2023-04-25T07:04:12;8.43;;;3.75;;
15381;SDS011;7789;51.364;12.358;2023-04-25T07:09:18;5.93;;;3.50;;
15381;SDS011;7789;51.364;12.358;2023-04-25T07:14:23;5.35;;;3.50;;
15381;SDS011;7789;51.364;12.358;2023-04-25T07:19:27;5.68;;;3.25;;
15381;SDS011;7789;51.364;12.358;2023-04-25T07:25:25;5.70;;;3.50;;
15381;SDS011;7789;51.364;12.358;2023-04-25T07:30:40;6.50;;;3.58;;
15381;SDS011;7789;51.364;12.358;2023-04-25T07:36:10;6.70;;;3.72;;
15381;SDS011;7789;51.364;12.358;2023-04-25T07:41:20;6.13;;;3.65;;
15381;SDS011;7789;51.364;12.358;2023-04-25T07:46:25;10.27;;;4.18;;
15381;SDS011;7789;51.364;12.358;2023-04-25T07:51:29;8.25;;;4.20;;
15381;SDS011;7789;51.364;12.358;2023-04-25T08:02:22;8.50;;;4.22;;
15381;SDS011;7789;51.364;12.358;2023-04-25T08:07:28;6.57;;;2.45;;
15381;SDS011;7789;51.364;12.358;2023-04-25T08:12:32;5.07;;;2.13;;
15381;SDS011;7789;51.364;12.358;2023-04-25T08:17:37;5.15;;;1.85;;
15381;SDS011;7789;51.364;12.358;2023-04-25T08:22:42;7.73;;;1.90;;
15381;SDS011;7789;51.364;12.358;2023-04-25T08:27:46;9.63;;;1.95;;
15381;SDS011;7789;51.364;12.358;2023-04-25T08:32:51;5.90;;;1.83;;
15381;SDS011;7789;51.364;12.358;2023-04-25T08:38:09;5.72;;;2.17;;
15381;SDS011;7789;51.364;12.358;2023-04-25T08:43:13;11.13;;;2.75;;
15381;SDS011;7789;51.364;12.358;2023-04-25T08:48:19;6.63;;;2.22;;
15381;SDS011;7789;51.364;12.358;2023-04-25T08:53:25;7.28;;;2.40;;
15381;SDS011;7789;51.364;12.358;2023-04-25T08:58:29;8.95;;;3.22;;
15381;SDS011;7789;51.364;12.358;2023-04-25T09:03:37;6.78;;;1.95;;
15381;SDS011;7789;51.364;12.358;2023-04-25T09:08:41;8.13;;;2.78;;
15381;SDS011;7789;51.364;12.358;2023-04-25T09:13:45;10.75;;;2.40;;
15381;SDS011;7789;51.364;12.358;2023-04-25T09:18:51;7.85;;;2.60;;
15381;SDS011;7789;51.364;12.358;2023-04-25T09:23:55;7.40;;;2.60;;
15381;SDS011;7789;51.364;12.358;2023-04-25T09:29:04;9.23;;;2.78;;
15381;SDS011;7789;51.364;12.358;2023-04-25T09:34:10;6.95;;;2.25;;
15381;SDS011;7789;51.364;12.358;2023-04-25T09:39:17;8.52;;;2.65;;
15381;SDS011;7789;51.364;12.358;2023-04-25T09:44:24;6.68;;;2.45;;
15381;SDS011;7789;51.364;12.358;2023-04-25T09:49:31;11.53;;;2.70;;
15381;SDS011;7789;51.364;12.358;2023-04-25T09:54:35;11.90;;;3.30;;
15381;SDS011;7789;51.364;12.358;2023-04-25T09:59:42;9.90;;;3.17;;
15381;SDS011;7789;51.364;12.358;2023-04-25T10:04:50;13.05;;;4.03;;
15381;SDS011;7789;51.364;12.358;2023-04-25T10:09:58;7.40;;;2.75;;
15381;SDS011;7789;51.364;12.358;2023-04-25T10:15:05;8.65;;;3.47;;
15381;SDS011;7789;51.364;12.358;2023-04-25T10:20:13;11.10;;;3.15;;
15381;SDS011;7789;51.364;12.358;2023-04-25T10:25:17;9.98;;;3.80;;
15381;SDS011;7789;51.364;12.358;2023-04-25T10:30:23;15.82;;;3.92;;
15381;SDS011;7789;51.364;12.358;2023-04-25T10:35:29;12.50;;;3.80;;
15381;SDS011;7789;51.364;12.358;2023-04-25T10:40:34;16.80;;;5.13;;
15381;SDS011;7789;51.364;12.358;2023-04-25T10:45:50;11.15;;;4.28;;
15381;SDS011;7789;51.364;12.358;2023-04-25T10:51:08;10.73;;;4.60;;
15381;SDS011;7789;51.364;12.358;2023-04-25T10:56:18;9.45;;;3.50;;
15381;SDS011;7789;51.364;12.358;2023-04-25T11:01:24;13.38;;;4.38;;
15381;SDS011;7789;51.364;12.358;2023-04-25T11:06:37;13.18;;;3.40;;
15381;SDS011;7789;51.364;12.358;2023-04-25T11:11:53;12.30;;;3.85;;
15381;SDS011;7789;51.364;12.358;2023-04-25T11:16:58;9.73;;;3.20;;
15381;SDS011;7789;51.364;12.358;2023-04-25T11:22:04;9.70;;;3.90;;
15381;SDS011;7789;51.364;12.358;2023-04-25T11:27:09;10.27;;;3.30;;
15381;SDS011;7789;51.364;12.358;2023-04-25T11:32:14;7.27;;;3.07;;
15381;SDS011;7789;51.364;12.358;2023-04-25T11:37:23;10.97;;;3.60;;
15381;SDS011;7789;51.364;12.358;2023-04-25T11:42:27;9.03;;;2.73;;
15381;SDS011;7789;51.364;12.358;2023-04-25T11:47:30;5.97;;;2.27;;
15381;SDS011;7789;51.364;12.358;2023-04-25T11:52:36;8.03;;;2.27;;
15381;SDS011;7789;51.364;12.358;2023-04-25T11:57:41;14.03;;;2.60;;
15381;SDS011;7789;51.364;12.358;2023-04-25T12:02:45;10.20;;;2.83;;
15381;SDS011;7789;51.364;12.358;2023-04-25T12:07:52;7.47;;;2.27;;
15381;SDS011;7789;51.364;12.358;2023-04-25T12:12:55;7.83;;;2.20;;
15381;SDS011;7789;51.364;12.358;2023-04-25T12:18:02;6.93;;;2.05;;
15381;SDS011;7789;51.364;12.358;2023-04-25T12:23:12;8.68;;;2.50;;
15381;SDS011;7789;51.364;12.358;2023-04-25T12:28:16;7.55;;;2.10;;
15381;SDS011;7789;51.364;12.358;2023-04-25T12:33:21;6.28;;;2.00;;
15381;SDS011;7789;51.364;12.358;2023-04-25T12:38:28;4.55;;;2.03;;
15381;SDS011;7789;51.364;12.358;2023-04-25T12:43:35;5.95;;;1.80;;
15381;SDS011;7789;51.364;12.358;2023-04-25T12:48:39;7.63;;;2.00;;
15381;SDS011;7789;51.364;12.358;2023-04-25T12:53:44;4.65;;;1.70;;
15381;SDS011;7789;51.364;12.358;2023-04-25T12:58:48;5.95;;;1.55;;
15381;SDS011;7789;51.364;12.358;2023-04-25T13:03:52;5.03;;;1.40;;
15381;SDS011;7789;51.364;12.358;2023-04-25T13:08:58;5.00;;;1.60;;
15381;SDS011;7789;51.364;12.358;2023-04-25T13:14:01;4.30;;;1.35;;
15381;SDS011;7789;51.364;12.358;2023-04-25T13:19:05;5.18;;;1.23;;
15381;SDS011;7789;51.364;12.358;2023-04-25T13:24:13;6.50;;;1.50;;
15381;SDS011;7789;51.364;12.358;2023-04-25T13:29:17;3.60;;;1.53;;
15381;SDS011;7789;51.364;12.358;2023-04-25T13:34:22;6.17;;;1.37;;
15381;SDS011;7789;51.364;12.358;2023-04-25T13:39:27;4.00;;;1.48;;
15381;SDS011;7789;51.364;12.358;2023-04-25T13:44:31;3.45;;;1.20;;
15381;SDS011;7789;51.364;12.358;2023-04-25T13:49:35;3.75;;;1.27;;
15381;SDS011;7789;51.364;12.358;2023-04-25T13:54:41;4.20;;;1.50;;
15381;SDS011;7789;51.364;12.358;2023-04-25T13:59:45;5.78;;;1.73;;
15381;SDS011;7789;51.364;12.358;2023-04-25T14:04:49;4.05;;;1.65;;
15381;SDS011;7789;51.364;12.358;2023-04-25T14:09:57;7.88;;;1.65;;
15381;SDS011;7789;51.364;12.358;2023-04-25T14:15:19;5.40;;;1.50;;
15381;SDS011;7789;51.364;12.358;2023-04-25T14:20:41;5.35;;;1.48;;
15381;SDS011;7789;51.364;12.358;2023-04-25T14:26:08;6.38;;;1.65;;
15381;SDS011;7789;51.364;12.358;2023-04-25T14:31:44;4.28;;;1.40;;
15381;SDS011;7789;51.364;12.358;2023-04-25T14:37:06;4.65;;;1.80;;
15381;SDS011;7789;51.364;12.358;2023-04-25T14:42:31;6.57;;;1.40;;
15381;SDS011;7789;51.364;12.358;2023-04-25T14:47:37;5.40;;;1.33;;
15381;SDS011;7789;51.364;12.358;2023-04-25T14:52:41;4.35;;;1.25;;
15381;SDS011;7789;51.364;12.358;2023-04-25T14:57:46;3.20;;;1.25;;
15381;SDS011;7789;51.364;12.358;2023-04-25T15:02:50;3.03;;;1.45;;
15381;SDS011;7789;51.364;12.358;2023-04-25T15:08:13;6.28;;;2.20;;
15381;SDS011;7789;51.364;12.358;2023-04-25T15:13:40;5.03;;;1.80;;
15381;SDS011;7789;51.364;12.358;2023-04-25T15:19:04;4.60;;;1.50;;
15381;SDS011;7789;51.364;12.358;2023-04-25T15:24:28;4.32;;;1.80;;
15381;SDS011;7789;51.364;12.358;2023-04-25T15:29:34;2.58;;;1.30;;
15381;SDS011;7789;51.364;12.358;2023-04-25T15:34:38;6.50;;;1.98;;
15381;SDS011;7789;51.364;12.358;2023-04-25T15:39:41;5.38;;;1.20;;
15381;SDS011;7789;51.364;12.358;2023-04-25T15:44:48;3.53;;;1.17;;
15381;SDS011;7789;51.364;12.358;2023-04-25T15:49:52;4.28;;;1.35;;
15381;SDS011;7789;51.364;12.358;2023-04-25T15:54:55;5.88;;;1.50;;
15381;SDS011;7789;51.364;12.358;2023-04-25T16:00:01;7.53;;;1.60;;
15381;SDS011;7789;51.364;12.358;2023-04-25T16:05:24;3.50;;;1.30;;
15381;SDS011;7789;51.364;12.358;2023-04-25T16:10:29;3.50;;;1.27;;
15381;SDS011;7789;51.364;12.358;2023-04-25T16:15:55;3.40;;;1.20;;
15381;SDS011;7789;51.364;12.358;2023-04-25T16:20:58;6.40;;;2.33;;
15381;SDS011;7789;51.364;12.358;2023-04-25T16:26:02;5.95;;;1.70;;
15381;SDS011;7789;51.364;12.358;2023-04-25T16:31:07;9.40;;;1.60;;
15381;SDS011;7789;51.364;12.358;2023-04-25T16:36:11;4.00;;;1.30;;
15381;SDS011;7789;51.364;12.358;2023-04-25T16:41:15;6.40;;;2.28;;
15381;SDS011;7789;51.364;12.358;2023-04-25T16:46:20;4.83;;;1.90;;
15381;SDS011;7789;51.364;12.358;2023-04-25T16:51:24;6.57;;;2.23;;
15381;SDS011;7789;51.364;12.358;2023-04-25T16:56:40;6.57;;;1.88;;
15381;SDS011;7789;51.364;12.358;2023-04-25T17:07:12;3.40;;;1.60;;
15381;SDS011;7789;51.364;12.358;2023-04-25T17:12:16;7.10;;;1.50;;
15381;SDS011;7789;51.364;12.358;2023-04-25T17:17:23;4.90;;;1.80;;
15381;SDS011;7789;51.364;12.358;2023-04-25T17:22:28;5.27;;;1.80;;
15381;SDS011;7789;51.364;12.358;2023-04-25T17:27:35;5.83;;;1.73;;
15381;SDS011;7789;51.364;12.358;2023-04-25T17:32:41;7.50;;;2.20;;
15381;SDS011;7789;51.364;12.358;2023-04-25T17:37:44;6.20;;;2.10;;
15381;SDS011;7789;51.364;12.358;2023-04-25T17:42:49;3.93;;;1.50;;
15381;SDS011;7789;51.364;12.358;2023-04-25T17:47:57;4.40;;;1.70;;
15381;SDS011;7789;51.364;12.358;2023-04-25T17:53:03;4.33;;;1.93;;
15381;SDS011;7789;51.364;12.358;2023-04-25T17:58:06;4.47;;;1.87;;
15381;SDS011;7789;51.364;12.358;2023-04-25T18:03:12;4.30;;;1.93;;
15381;SDS011;7789;51.364;12.358;2023-04-25T18:08:18;4.47;;;1.87;;
15381;SDS011;7789;51.364;12.358;2023-04-25T18:13:24;5.27;;;1.37;;
15381;SDS011;7789;51.364;12.358;2023-04-25T18:18:29;5.50;;;2.20;;
15381;SDS011;7789;51.364;12.358;2023-04-25T18:23:35;7.23;;;2.10;;
15381;SDS011;7789;51.364;12.358;2023-04-25T18:28:40;2.73;;;1.20;;
15381;SDS011;7789;51.364;12.358;2023-04-25T18:33:48;4.43;;;1.67;;
15381;SDS011;7789;51.364;12.358;2023-04-25T18:38:53;6.13;;;1.50;;
15381;SDS011;7789;51.364;12.358;2023-04-25T18:44:12;4.43;;;1.40;;
15381;SDS011;7789;51.364;12.358;2023-04-25T18:49:17;3.00;;;1.30;;
15381;SDS011;7789;51.364;12.358;2023-04-25T18:54:22;2.37;;;1.10;;
15381;SDS011;7789;51.364;12.358;2023-04-25T18:59:29;1.30;;;0.80;;
15381;SDS011;7789;51.364;12.358;2023-04-25T19:04:42;4.40;;;1.30;;
15381;SDS011;7789;51.364;12.358;2023-04-25T19:10:00;4.17;;;1.20;;
15381;SDS011;7789;51.364;12.358;2023-04-25T19:15:11;8.37;;;4.10;;
15381;SDS011;7789;51.364;12.358;2023-04-25T19:20:29;8.00;;;3.40;;
15381;SDS011;7789;51.364;12.358;2023-04-25T19:26:00;3.50;;;1.40;;
15381;SDS011;7789;51.364;12.358;2023-04-25T19:31:11;2.90;;;1.70;;
15381;SDS011;7789;51.364;12.358;2023-04-25T19:36:19;3.60;;;1.37;;
15381;SDS011;7789;51.364;12.358;2023-04-25T19:41:26;5.23;;;1.83;;
15381;SDS011;7789;51.364;12.358;2023-04-25T19:46:36;3.43;;;1.30;;
15381;SDS011;7789;51.364;12.358;2023-04-25T19:51:46;2.87;;;1.10;;
15381;SDS011;7789;51.364;12.358;2023-04-25T19:56:57;4.77;;;1.40;;
15381;SDS011;7789;51.364;12.358;2023-04-25T20:02:01;3.77;;;1.30;;
15381;SDS011;7789;51.364;12.358;2023-04-25T20:07:09;3.17;;;1.40;;
15381;SDS011;7789;51.364;12.358;2023-04-25T20:12:13;4.23;;;1.43;;
15381;SDS011;7789;51.364;12.358;2023-04-25T20:17:17;4.57;;;1.30;;
15381;SDS011;7789;51.364;12.358;2023-04-25T20:22:21;4.87;;;1.63;;
15381;SDS011;7789;51.364;12.358;2023-04-25T20:27:26;4.10;;;1.60;;
15381;SDS011;7789;51.364;12.358;2023-04-25T20:32:30;3.67;;;1.30;;
15381;SDS011;7789;51.364;12.358;2023-04-25T20:37:40;5.37;;;1.57;;
15381;SDS011;7789;51.364;12.358;2023-04-25T20:42:44;4.13;;;1.50;;
15381;SDS011;7789;51.364;12.358;2023-04-25T20:47:49;4.63;;;1.80;;
15381;SDS011;7789;51.364;12.358;2023-04-25T20:52:55;2.63;;;1.50;;
15381;SDS011;7789;51.364;12.358;2023-04-25T20:57:59;4.57;;;1.60;;
15381;SDS011;7789;51.364;12.358;2023-04-25T21:03:08;2.97;;;1.30;;
15381;SDS011;7789;51.364;12.358;2023-04-25T21:08:15;4.20;;;1.47;;
15381;SDS011;7789;51.364;12.358;2023-04-25T21:13:20;4.17;;;1.37;;
15381;SDS011;7789;51.364;12.358;2023-04-25T21:18:24;3.50;;;1.33;;
15381;SDS011;7789;51.364;12.358;2023-04-25T21:23:32;3.60;;;1.40;;
15381;SDS011;7789;51.364;12.358;2023-04-25T21:28:38;5.73;;;2.00;;
15381;SDS011;7789;51.364;12.358;2023-04-25T21:33:42;6.77;;;1.70;;
15381;SDS011;7789;51.364;12.358;2023-04-25T21:38:47;3.27;;;1.50;;
15381;SDS011;7789;51.364;12.358;2023-04-25T21:43:51;3.17;;;1.70;;
15381;SDS011;7789;51.364;12.358;2023-04-25T21:48:54;4.37;;;1.40;;
15381;SDS011;7789;51.364;12.358;2023-04-25T21:54:00;3.00;;;1.20;;
15381;SDS011;7789;51.364;12.358;2023-04-25T21:59:05;4.47;;;1.43;;
15381;SDS011;7789;51.364;12.358;2023-04-25T22:04:09;4.23;;;1.77;;
15381;SDS011;7789;51.364;12.358;2023-04-25T22:09:15;5.03;;;1.53;;
15381;SDS011;7789;51.364;12.358;2023-04-25T22:14:19;3.33;;;1.67;;
15381;SDS011;7789;51.364;12.358;2023-04-25T22:19:23;4.77;;;2.20;;
15381;SDS011;7789;51.364;12.358;2023-04-25T22:24:30;4.27;;;1.53;;
15381;SDS011;7789;51.364;12.358;2023-04-25T22:29:34;2.77;;;1.50;;
15381;SDS011;7789;51.364;12.358;2023-04-25T22:34:42;3.30;;;1.50;;
15381;SDS011;7789;51.364;12.358;2023-04-25T22:39:48;2.13;;;1.40;;
15381;SDS011;7789;51.364;12.358;2023-04-25T22:44:53;4.47;;;1.50;;
15381;SDS011;7789;51.364;12.358;2023-04-25T22:49:57;4.93;;;1.93;;
15381;SDS011;7789;51.364;12.358;2023-04-25T22:55:02;3.20;;;1.70;;
15381;SDS011;7789;51.364;12.358;2023-04-25T23:00:06;3.33;;;1.50;;
15381;SDS011;7789;51.364;12.358;2023-04-25T23:05:16;4.43;;;1.70;;
15381;SDS011;7789;51.364;12.358;2023-04-25T23:10:22;4.00;;;1.53;;
15381;SDS011;7789;51.364;12.358;2023-04-25T23:15:26;5.70;;;1.77;;
15381;SDS011;7789;51.364;12.358;2023-04-25T23:20:40;4.57;;;1.40;;
15381;SDS011;7789;51.364;12.358;2023-04-25T23:25:45;4.23;;;1.40;;
15381;SDS011;7789;51.364;12.358;2023-04-25T23:30:49;5.90;;;2.40;;
15381;SDS011;7789;51.364;12.358;2023-04-25T23:35:53;5.07;;;2.27;;
15381;SDS011;7789;51.364;12.358;2023-04-25T23:41:00;5.67;;;1.47;;
15381;SDS011;7789;51.364;12.358;2023-04-25T23:46:03;3.17;;;1.50;;
15381;SDS011;7789;51.364;12.358;2023-04-25T23:51:10;4.17;;;1.67;;
15381;SDS011;7789;51.364;12.358;2023-04-25T23:56:16;3.50;;;1.90;;
